Time;durP1;ratioP1;P1;durP2;ratioP2;P2;SDS_P1;SDS_P2;PMS_P1;PMS_P2;Temp;Humidity;BMP_temperature;BMP_pressure;BME280_temperature;BME280_humidity;BME280_pressure;Samples;Min_cycle;Max_cycle;Signal;HPM_P1;HPM_P2
2022/10/10 00:00:28;;;;;;;9.20;5.22;;;9.00;99.90;;;;;;5052420;28;20041;-61
2022/10/10 00:02:54;;;;;;;7.28;5.05;;;8.90;99.90;;;;;;5053089;28;20045;-61
2022/10/10 00:05:19;;;;;;;8.43;5.00;;;8.90;99.90;;;;;;5052912;28;20044;-61
2022/10/10 00:07:45;;;;;;;8.55;4.85;;;8.90;99.90;;;;;;5053053;28;20064;-61
2022/10/10 00:10:10;;;;;;;10.52;5.05;;;8.90;99.90;;;;;;5052757;28;20044;-61
2022/10/10 00:12:36;;;;;;;8.60;4.85;;;8.80;99.90;;;;;;5052688;28;20025;-62
2022/10/10 00:15:03;;;;;;;9.15;5.53;;;8.80;99.90;;;;;;5051917;28;20037;-61
2022/10/10 00:17:28;;;;;;;7.95;5.07;;;8.80;99.90;;;;;;5052197;28;20062;-61
2022/10/10 00:19:54;;;;;;;8.43;5.50;;;8.80;99.90;;;;;;5052817;28;20120;-61
2022/10/10 00:22:20;;;;;;;8.63;5.30;;;8.80;99.90;;;;;;5052789;28;20440;-61
2022/10/10 00:24:45;;;;;;;7.25;4.85;;;8.80;99.90;;;;;;5052475;28;20037;-62
2022/10/10 00:27:11;;;;;;;8.07;5.07;;;8.70;99.90;;;;;;5051928;28;20045;-61
2022/10/10 00:29:36;;;;;;;7.72;5.43;;;8.80;99.90;;;;;;5052615;28;20029;-61
2022/10/10 00:32:03;;;;;;;8.38;5.05;;;8.80;99.90;;;;;;5052656;28;20052;-61
2022/10/10 00:34:28;;;;;;;9.35;5.55;;;8.80;99.90;;;;;;5052124;28;20159;-61
2022/10/10 00:36:54;;;;;;;7.45;4.85;;;8.80;99.90;;;;;;5050992;28;20327;-61
2022/10/10 00:39:19;;;;;;;7.35;5.30;;;8.70;99.90;;;;;;5050813;28;20063;-61
2022/10/10 00:41:45;;;;;;;8.10;5.30;;;8.70;99.90;;;;;;5051510;28;20051;-61
2022/10/10 00:44:12;;;;;;;8.23;5.10;;;8.70;99.90;;;;;;5051567;28;20045;-61
2022/10/10 00:46:39;;;;;;;8.93;5.30;;;8.70;99.90;;;;;;5051554;28;20049;-62
2022/10/10 00:49:11;;;;;;;7.93;5.60;;;8.60;99.90;;;;;;5052002;28;20520;-62
2022/10/10 00:51:38;;;;;;;7.57;5.35;;;8.60;99.90;;;;;;5052188;28;20090;-62
2022/10/10 00:54:08;;;;;;;10.02;5.07;;;8.60;99.90;;;;;;5051168;28;20041;-61
2022/10/10 00:56:40;;;;;;;7.95;4.63;;;8.60;99.90;;;;;;5051514;28;20131;-61
2022/10/10 00:59:09;;;;;;;10.20;5.72;;;8.60;99.90;;;;;;5052159;28;20055;-62
2022/10/10 01:01:36;;;;;;;8.27;5.10;;;8.50;99.90;;;;;;5051788;28;20052;-61
2022/10/10 01:04:02;;;;;;;6.88;4.68;;;8.50;99.90;;;;;;5051940;28;20044;-61
2022/10/10 01:06:28;;;;;;;9.02;5.00;;;8.50;99.90;;;;;;5051184;28;20465;-61
2022/10/10 01:08:56;;;;;;;7.50;5.22;;;8.50;99.90;;;;;;5051258;28;20549;-61
2022/10/10 01:11:40;;;;;;;6.57;5.00;;;8.50;99.90;;;;;;5050545;28;20064;-61
2022/10/10 01:14:20;;;;;;;8.80;5.45;;;8.50;99.90;;;;;;5051692;28;20171;-62
2022/10/10 01:17:12;;;;;;;8.02;5.53;;;8.50;99.90;;;;;;5051436;28;20049;-61
2022/10/10 01:20:08;;;;;;;7.93;5.03;;;8.40;99.90;;;;;;5050445;28;20424;-61
2022/10/10 01:22:49;;;;;;;8.48;5.32;;;8.40;99.90;;;;;;5051322;28;20455;-61
2022/10/10 01:25:15;;;;;;;7.35;5.20;;;8.40;99.90;;;;;;5051395;28;20048;-61
2022/10/10 01:27:47;;;;;;;9.45;5.38;;;8.40;99.90;;;;;;5051114;28;20051;-62
2022/10/10 01:30:16;;;;;;;9.02;5.68;;;8.40;99.90;;;;;;5050967;28;20041;-61
2022/10/10 01:33:13;;;;;;;7.53;5.20;;;8.40;99.90;;;;;;5051538;28;20098;-61
2022/10/10 01:35:56;;;;;;;6.85;5.50;;;8.40;99.90;;;;;;5051351;28;20102;-61
2022/10/10 01:38:33;;;;;;;8.38;5.35;;;8.30;99.90;;;;;;5051198;28;20041;-61
2022/10/10 01:41:07;;;;;;;7.07;5.10;;;8.30;99.90;;;;;;5051122;28;20095;-62
2022/10/10 01:43:35;;;;;;;7.20;5.15;;;8.30;99.90;;;;;;5049943;28;20094;-61
2022/10/10 01:46:09;;;;;;;8.73;5.15;;;8.30;99.90;;;;;;5051289;28;20048;-61
2022/10/10 01:48:35;;;;;;;8.00;5.45;;;8.30;99.90;;;;;;5050946;28;20028;-62
2022/10/10 01:51:19;;;;;;;7.30;5.30;;;8.30;99.90;;;;;;5051573;28;20090;-61
2022/10/10 01:54:15;;;;;;;10.73;5.65;;;8.20;99.90;;;;;;5037402;28;20087;-61
2022/10/10 01:57:02;;;;;;;10.25;5.30;;;8.20;99.90;;;;;;5050719;28;20441;-61
2022/10/10 02:00:03;;;;;;;8.40;5.38;;;8.20;99.90;;;;;;5050237;28;20482;-61
2022/10/10 02:02:50;;;;;;;9.35;5.28;;;8.20;99.90;;;;;;5050955;28;20133;-61
2022/10/10 02:05:19;;;;;;;7.93;5.43;;;8.20;99.90;;;;;;5050425;28;20342;-61
2022/10/10 02:08:13;;;;;;;9.18;5.63;;;8.10;99.90;;;;;;5050413;28;20048;-61
2022/10/10 02:10:56;;;;;;;8.57;5.80;;;8.10;99.90;;;;;;5050681;28;20329;-61
2022/10/10 02:13:27;;;;;;;9.40;5.80;;;8.10;99.90;;;;;;5050814;28;20052;-61
2022/10/10 02:15:56;;;;;;;9.73;5.47;;;8.10;99.90;;;;;;5037885;28;20087;-62
2022/10/10 02:18:24;;;;;;;9.75;5.63;;;8.10;99.90;;;;;;5050386;28;20521;-61
2022/10/10 02:20:51;;;;;;;8.93;5.75;;;8.10;99.90;;;;;;5050641;28;20122;-62
2022/10/10 02:23:19;;;;;;;8.73;5.72;;;8.10;99.90;;;;;;5050538;28;20076;-62
2022/10/10 02:25:51;;;;;;;8.45;5.60;;;8.10;99.90;;;;;;5049698;28;20531;-61
2022/10/10 02:28:34;;;;;;;9.45;5.35;;;8.10;99.90;;;;;;5050344;28;20144;-62
2022/10/10 02:31:05;;;;;;;8.55;5.38;;;8.10;99.90;;;;;;5052830;28;20339;-62
2022/10/10 02:33:42;;;;;;;6.90;5.50;;;8.10;99.90;;;;;;5054860;28;20045;-61
2022/10/10 02:36:08;;;;;;;9.27;5.47;;;8.10;99.90;;;;;;5054560;28;20121;-61
2022/10/10 02:38:35;;;;;;;7.40;5.47;;;8.10;99.90;;;;;;5052838;28;20055;-61
2022/10/10 02:41:04;;;;;;;8.07;5.65;;;8.10;99.90;;;;;;5054286;28;20064;-61
2022/10/10 02:43:33;;;;;;;8.13;5.28;;;8.00;99.90;;;;;;5054315;28;20047;-61
2022/10/10 02:46:04;;;;;;;7.30;5.40;;;8.00;99.90;;;;;;5054376;28;20041;-61
2022/10/10 02:48:30;;;;;;;8.23;5.50;;;8.00;99.90;;;;;;5054115;28;20029;-60
2022/10/10 02:50:56;;;;;;;8.38;5.47;;;8.00;99.90;;;;;;5054251;28;20110;-62
2022/10/10 02:53:22;;;;;;;7.38;5.80;;;8.00;99.90;;;;;;5054008;28;20032;-61
2022/10/10 02:55:47;;;;;;;9.07;5.28;;;8.00;99.90;;;;;;5054376;28;20044;-61
2022/10/10 02:58:13;;;;;;;6.45;4.95;;;8.00;99.90;;;;;;5053879;28;20037;-61
2022/10/10 03:00:39;;;;;;;8.98;5.63;;;8.00;99.90;;;;;;5054278;28;20108;-61
2022/10/10 03:03:04;;;;;;;8.23;5.72;;;8.00;99.90;;;;;;5052505;28;20106;-61
2022/10/10 03:05:30;;;;;;;8.32;5.63;;;8.00;99.90;;;;;;5053180;28;20043;-61
2022/10/10 03:07:55;;;;;;;9.82;5.65;;;8.10;99.90;;;;;;5053051;28;20044;-61
2022/10/10 03:10:21;;;;;;;6.95;5.68;;;8.10;99.90;;;;;;5053226;28;20039;-61
2022/10/10 03:12:46;;;;;;;10.70;6.10;;;8.10;99.90;;;;;;5053305;28;20048;-61
2022/10/10 03:15:12;;;;;;;7.22;5.40;;;8.00;99.90;;;;;;5053111;28;20114;-61
2022/10/10 03:17:38;;;;;;;7.22;5.68;;;8.00;99.90;;;;;;5053597;28;20128;-61
2022/10/10 03:20:05;;;;;;;9.82;5.80;;;8.00;99.90;;;;;;5053923;28;20045;-61
2022/10/10 03:22:30;;;;;;;8.45;5.65;;;8.00;99.90;;;;;;5053460;28;20337;-62
2022/10/10 03:24:56;;;;;;;7.10;5.35;;;8.00;99.90;;;;;;5053509;28;20041;-61
2022/10/10 03:27:21;;;;;;;8.13;6.28;;;8.00;99.90;;;;;;5053379;28;20128;-61
2022/10/10 03:29:47;;;;;;;6.95;5.75;;;8.00;99.90;;;;;;5053680;28;20106;-61
2022/10/10 03:32:12;;;;;;;7.72;5.50;;;8.00;99.90;;;;;;5053561;28;20029;-62
2022/10/10 03:34:38;;;;;;;9.88;6.00;;;8.00;99.90;;;;;;5053511;28;20446;-61
2022/10/10 03:37:03;;;;;;;7.93;5.97;;;8.00;99.90;;;;;;5053547;28;20047;-61
2022/10/10 03:39:29;;;;;;;9.52;6.38;;;8.00;99.90;;;;;;5052989;28;20927;-61
2022/10/10 03:41:55;;;;;;;8.05;5.88;;;8.00;99.90;;;;;;5053401;28;20086;-61
2022/10/10 03:44:20;;;;;;;8.10;5.68;;;8.00;99.90;;;;;;5053599;28;20055;-61
2022/10/10 03:46:46;;;;;;;8.30;5.80;;;8.00;99.90;;;;;;5053034;28;20591;-61
2022/10/10 03:49:11;;;;;;;9.35;5.22;;;8.00;99.90;;;;;;5035610;28;20041;-61
2022/10/10 03:51:37;;;;;;;9.05;6.07;;;8.00;99.90;;;;;;5053411;28;20052;-61
2022/10/10 03:54:03;;;;;;;11.27;6.15;;;8.10;99.90;;;;;;5052583;28;20041;-62
2022/10/10 03:56:28;;;;;;;10.88;6.00;;;8.00;99.90;;;;;;5052044;28;20045;-61
2022/10/10 03:58:56;;;;;;;7.80;6.05;;;8.00;99.90;;;;;;5053037;28;20127;-61
2022/10/10 04:01:22;;;;;;;11.23;5.68;;;8.00;99.90;;;;;;5052659;28;20045;-61
2022/10/10 04:03:47;;;;;;;9.70;5.57;;;8.00;99.90;;;;;;5052633;28;20040;-61
2022/10/10 04:06:13;;;;;;;8.55;5.55;;;8.00;99.90;;;;;;5052194;28;20080;-61
2022/10/10 04:08:39;;;;;;;8.52;5.70;;;8.00;99.90;;;;;;5052141;28;20068;-61
2022/10/10 04:11:04;;;;;;;10.02;5.75;;;8.10;99.90;;;;;;5052577;28;20063;-62
2022/10/10 04:13:30;;;;;;;8.32;5.70;;;8.10;99.90;;;;;;5052170;28;20048;-61
2022/10/10 04:15:56;;;;;;;8.50;5.90;;;8.00;99.90;;;;;;5052693;28;20044;-62
2022/10/10 04:18:22;;;;;;;10.60;6.18;;;8.00;99.90;;;;;;5052781;28;20068;-62
2022/10/10 04:20:48;;;;;;;8.93;5.45;;;8.10;99.90;;;;;;5052696;28;20045;-61
2022/10/10 04:23:13;;;;;;;7.93;5.93;;;8.10;99.90;;;;;;5052764;28;20422;-61
2022/10/10 04:25:40;;;;;;;7.95;6.07;;;8.10;99.90;;;;;;5051826;28;20038;-61
2022/10/10 04:28:06;;;;;;;7.55;5.90;;;8.10;99.90;;;;;;5051564;28;20390;-61
2022/10/10 04:30:33;;;;;;;7.75;5.57;;;8.20;99.90;;;;;;5051737;28;20087;-61
2022/10/10 04:32:58;;;;;;;8.15;6.45;;;8.20;99.90;;;;;;5051948;28;20041;-61
2022/10/10 04:35:24;;;;;;;8.48;6.22;;;8.10;99.90;;;;;;5052014;28;20112;-62
2022/10/10 04:37:50;;;;;;;7.88;5.63;;;8.10;99.90;;;;;;5051418;28;20098;-61
2022/10/10 04:40:16;;;;;;;8.90;6.10;;;8.10;99.90;;;;;;5052140;28;20450;-60
2022/10/10 04:42:42;;;;;;;7.28;5.78;;;8.10;99.90;;;;;;5052052;28;20044;-61
2022/10/10 04:45:08;;;;;;;10.32;6.13;;;8.10;99.90;;;;;;5050933;28;20048;-61
2022/10/10 04:47:34;;;;;;;7.80;5.70;;;8.10;99.90;;;;;;5050906;28;20053;-62
2022/10/10 04:49:59;;;;;;;7.97;5.90;;;8.00;99.90;;;;;;5051185;28;20029;-61
2022/10/10 04:52:25;;;;;;;13.57;6.40;;;8.00;99.90;;;;;;5050604;28;20047;-61
2022/10/10 04:54:51;;;;;;;8.23;5.55;;;8.00;99.90;;;;;;5049336;28;20044;-60
2022/10/10 04:57:16;;;;;;;8.88;6.22;;;8.00;99.90;;;;;;5050754;28;20064;-61
2022/10/10 04:59:42;;;;;;;8.50;6.32;;;8.00;99.90;;;;;;5051038;28;20044;-61
2022/10/10 05:02:07;;;;;;;9.18;6.15;;;8.00;99.90;;;;;;5050342;28;20051;-61
2022/10/10 05:04:33;;;;;;;8.57;6.45;;;8.00;99.90;;;;;;5049525;28;20032;-61
2022/10/10 05:06:58;;;;;;;8.65;5.97;;;8.00;99.90;;;;;;5049438;28;20075;-62
2022/10/10 05:09:24;;;;;;;9.40;6.32;;;8.00;99.90;;;;;;5051443;28;20056;-60
2022/10/10 05:11:50;;;;;;;10.73;6.05;;;8.00;99.90;;;;;;5051525;28;20584;-61
2022/10/10 05:14:15;;;;;;;8.30;6.18;;;8.00;99.90;;;;;;5051175;28;20048;-61
2022/10/10 05:16:41;;;;;;;9.38;6.68;;;8.00;99.90;;;;;;5050856;28;20029;-61
2022/10/10 05:19:06;;;;;;;8.77;6.53;;;8.00;99.90;;;;;;5051223;28;20075;-61
2022/10/10 05:21:32;;;;;;;11.07;6.93;;;7.90;99.90;;;;;;5050173;28;20056;-61
2022/10/10 05:23:57;;;;;;;8.93;6.20;;;8.00;99.90;;;;;;5050457;28;20392;-61
2022/10/10 05:26:23;;;;;;;9.65;6.47;;;8.00;99.90;;;;;;5050550;28;20047;-62
2022/10/10 05:28:49;;;;;;;38.67;31.88;;;8.00;99.90;;;;;;5050434;28;20048;-62
2022/10/10 05:31:14;;;;;;;12.80;9.82;;;8.00;99.90;;;;;;5051598;28;20033;-61
2022/10/10 05:33:40;;;;;;;8.00;6.78;;;8.00;99.90;;;;;;5050592;28;20450;-62
2022/10/10 05:36:09;;;;;;;12.60;7.63;;;8.00;99.90;;;;;;5048682;28;20448;-62
2022/10/10 05:38:36;;;;;;;12.02;6.90;;;7.90;99.90;;;;;;5049923;28;20070;-63
2022/10/10 05:41:02;;;;;;;10.40;7.40;;;8.00;99.90;;;;;;5048982;28;20529;-62
2022/10/10 05:43:28;;;;;;;9.65;6.78;;;7.90;99.90;;;;;;5050485;28;20135;-61
2022/10/10 05:45:54;;;;;;;8.55;7.00;;;7.90;99.90;;;;;;5050783;28;20053;-62
2022/10/10 05:48:20;;;;;;;10.73;7.43;;;7.90;99.90;;;;;;5050391;28;20044;-64
2022/10/10 05:50:48;;;;;;;11.10;8.25;;;7.90;99.90;;;;;;5050286;28;20060;-62
2022/10/10 05:53:14;;;;;;;9.00;8.05;;;7.90;99.90;;;;;;5050780;28;20474;-61
2022/10/10 05:55:40;;;;;;;9.90;6.97;;;7.90;99.90;;;;;;5050438;28;20411;-61
2022/10/10 05:58:06;;;;;;;11.90;7.22;;;7.90;99.90;;;;;;5050314;28;20158;-62
2022/10/10 06:00:31;;;;;;;9.25;7.18;;;7.90;99.90;;;;;;5039553;28;20079;-62
2022/10/10 06:02:57;;;;;;;10.75;7.32;;;7.90;99.90;;;;;;5050817;28;20033;-61
2022/10/10 06:05:23;;;;;;;10.70;7.47;;;7.90;99.90;;;;;;5030053;28;20447;-62
2022/10/10 06:07:49;;;;;;;10.73;7.07;;;7.90;99.90;;;;;;5050948;28;20052;-62
2022/10/10 06:10:14;;;;;;;11.57;7.47;;;7.90;99.90;;;;;;5050475;28;20036;-62
2022/10/10 06:12:40;;;;;;;11.18;7.25;;;7.90;99.90;;;;;;5050067;28;20080;-63
2022/10/10 06:15:06;;;;;;;11.77;8.05;;;7.90;99.90;;;;;;5049634;28;20037;-62
2022/10/10 06:17:32;;;;;;;11.95;7.40;;;7.90;99.90;;;;;;5049228;28;20116;-62
2022/10/10 06:19:57;;;;;;;8.95;7.07;;;8.00;99.90;;;;;;5049201;28;20041;-61
2022/10/10 06:22:23;;;;;;;9.88;7.35;;;8.00;99.90;;;;;;5049818;28;20446;-62
2022/10/10 06:24:48;;;;;;;9.60;7.10;;;8.00;99.90;;;;;;5049200;28;20048;-61
2022/10/10 06:27:14;;;;;;;10.88;7.38;;;8.10;99.90;;;;;;5049528;28;20060;-62
2022/10/10 06:29:39;;;;;;;12.18;10.93;;;8.10;99.90;;;;;;5049373;28;20029;-62
2022/10/10 06:32:05;;;;;;;11.93;8.10;;;8.20;99.90;;;;;;5049583;28;20136;-62
2022/10/10 06:34:31;;;;;;;14.52;8.05;;;8.20;99.90;;;;;;5049350;28;20041;-61
2022/10/10 06:36:56;;;;;;;12.43;7.70;;;8.30;99.90;;;;;;5048808;28;20049;-61
2022/10/10 06:39:22;;;;;;;12.13;7.05;;;8.30;99.90;;;;;;5048894;28;20037;-62
2022/10/10 06:41:48;;;;;;;10.52;7.20;;;8.40;99.90;;;;;;5032941;28;20052;-61
2022/10/10 06:44:16;;;;;;;11.73;6.90;;;8.40;99.90;;;;;;5050369;28;20056;-62
2022/10/10 06:46:42;;;;;;;11.43;7.20;;;8.50;99.90;;;;;;5048635;28;20136;-62
2022/10/10 06:49:08;;;;;;;8.75;6.97;;;8.60;99.90;;;;;;5050249;28;20488;-62
2022/10/10 06:51:34;;;;;;;13.45;6.95;;;8.70;99.90;;;;;;5050689;28;20465;-63
2022/10/10 06:53:59;;;;;;;13.63;7.47;;;8.80;99.90;;;;;;5049090;28;20045;-62
2022/10/10 06:56:25;;;;;;;10.40;6.95;;;8.90;99.90;;;;;;5050511;28;20043;-62
2022/10/10 06:58:51;;;;;;;10.80;7.13;;;9.00;99.90;;;;;;5050542;28;20037;-62
2022/10/10 07:01:18;;;;;;;8.07;6.38;;;9.00;99.90;;;;;;5049907;28;20063;-61
2022/10/10 07:03:44;;;;;;;10.60;7.63;;;9.10;99.90;;;;;;5050140;28;20362;-62
2022/10/10 07:06:11;;;;;;;10.02;7.13;;;9.20;99.90;;;;;;5050417;28;20092;-62
2022/10/10 07:08:38;;;;;;;10.13;7.03;;;9.20;99.90;;;;;;5049828;28;20500;-61
2022/10/10 07:11:05;;;;;;;10.63;6.90;;;9.30;99.90;;;;;;5049970;28;20102;-61
2022/10/10 07:13:30;;;;;;;9.90;7.38;;;9.40;99.90;;;;;;5050289;28;20037;-62
2022/10/10 07:15:56;;;;;;;9.73;6.28;;;9.40;99.90;;;;;;5041362;28;20103;-62
2022/10/10 07:18:22;;;;;;;11.50;6.63;;;9.40;99.90;;;;;;5053954;28;20103;-62
2022/10/10 07:20:48;;;;;;;10.32;6.80;;;9.40;99.90;;;;;;5053224;28;20041;-61
2022/10/10 07:23:14;;;;;;;10.55;6.80;;;9.50;99.90;;;;;;5053596;28;20037;-62
2022/10/10 07:25:41;;;;;;;12.65;7.28;;;9.50;99.90;;;;;;5053421;28;20041;-61
2022/10/10 07:28:07;;;;;;;10.02;6.57;;;9.60;99.90;;;;;;5053728;28;20044;-63
2022/10/10 07:30:38;;;;;;;9.60;6.78;;;9.70;99.90;;;;;;5053325;28;20056;-62
2022/10/10 07:33:03;;;;;;;11.48;7.03;;;9.70;99.90;;;;;;5053635;28;20048;-62
2022/10/10 07:35:29;;;;;;;12.32;7.30;;;9.80;99.90;;;;;;5053585;28;20033;-62
2022/10/10 07:37:55;;;;;;;8.60;6.60;;;9.80;99.90;;;;;;5053372;28;20037;-62
2022/10/10 07:40:22;;;;;;;8.23;6.82;;;9.90;99.90;;;;;;5053100;28;20163;-62
2022/10/10 07:42:47;;;;;;;10.30;6.78;;;10.00;99.90;;;;;;5053527;28;20122;-62
2022/10/10 07:45:13;;;;;;;8.50;6.68;;;10.10;99.90;;;;;;5052997;28;20447;-63
2022/10/10 07:47:39;;;;;;;10.13;6.43;;;10.20;99.90;;;;;;5053237;28;20128;-63
2022/10/10 07:50:06;;;;;;;9.05;6.80;;;10.30;99.90;;;;;;5052873;28;20044;-63
2022/10/10 07:52:33;;;;;;;8.95;7.15;;;10.50;99.90;;;;;;5052195;28;20029;-62
2022/10/10 07:54:59;;;;;;;9.77;6.93;;;10.60;99.90;;;;;;5053186;28;20060;-63
2022/10/10 07:57:25;;;;;;;12.20;6.75;;;10.70;99.90;;;;;;5053351;28;20040;-62
2022/10/10 07:59:51;;;;;;;9.43;6.72;;;10.90;99.90;;;;;;5052954;28;20028;-64
2022/10/10 08:02:16;;;;;;;10.18;6.68;;;11.00;99.90;;;;;;5052253;28;20041;-62
2022/10/10 08:04:42;;;;;;;8.48;6.07;;;11.00;99.90;;;;;;5052796;28;20055;-62
2022/10/10 08:07:08;;;;;;;10.90;6.25;;;11.10;99.90;;;;;;5052967;28;20043;-62
2022/10/10 08:09:33;;;;;;;10.02;6.53;;;11.20;99.90;;;;;;5052692;28;20073;-62
2022/10/10 08:11:59;;;;;;;11.25;6.82;;;11.40;99.90;;;;;;5052877;28;20033;-63
2022/10/10 08:14:25;;;;;;;10.50;6.25;;;11.60;99.90;;;;;;5052908;28;20065;-62
2022/10/10 08:16:50;;;;;;;8.23;6.43;;;11.80;99.90;;;;;;5052870;28;20474;-62
2022/10/10 08:19:16;;;;;;;9.82;6.55;;;12.00;99.90;;;;;;5051642;28;20399;-63
2022/10/10 08:21:41;;;;;;;11.02;6.95;;;12.10;99.90;;;;;;5051570;28;20029;-63
2022/10/10 08:24:08;;;;;;;10.30;6.53;;;12.30;99.90;;;;;;5050926;28;20045;-63
2022/10/10 08:26:33;;;;;;;10.30;6.28;;;12.40;99.90;;;;;;5051477;28;20075;-62
2022/10/10 08:28:59;;;;;;;9.30;6.00;;;12.50;99.90;;;;;;5050689;28;20068;-62
2022/10/10 08:31:25;;;;;;;9.82;5.85;;;12.60;99.90;;;;;;5052521;28;20044;-62
2022/10/10 08:33:51;;;;;;;10.43;6.90;;;12.70;99.90;;;;;;5052335;28;20088;-62
2022/10/10 08:36:19;;;;;;;10.50;6.70;;;12.80;99.90;;;;;;5034724;28;20472;-63
2022/10/10 08:38:46;;;;;;;7.82;6.43;;;12.80;99.90;;;;;;5052215;28;20060;-62
2022/10/10 08:41:25;;;;;;;11.75;6.43;;;12.90;99.90;;;;;;5051819;28;20061;-62
2022/10/10 08:43:56;;;;;;;10.77;7.20;;;12.90;99.90;;;;;;5052422;28;20128;-62
2022/10/10 08:46:33;;;;;;;11.93;8.43;;;12.90;99.90;;;;;;5052126;28;20041;-62
2022/10/10 08:49:11;;;;;;;10.02;6.63;;;13.00;99.90;;;;;;5051924;28;20137;-62
2022/10/10 08:51:39;;;;;;;10.45;7.78;;;13.10;99.90;;;;;;5052014;28;20041;-62
2022/10/10 08:54:08;;;;;;;12.07;6.82;;;13.20;99.90;;;;;;5051885;28;20107;-63
2022/10/10 08:56:34;;;;;;;12.05;7.25;;;13.30;99.90;;;;;;5052110;28;20052;-62
2022/10/10 08:59:09;;;;;;;10.23;6.53;;;13.30;99.90;;;;;;5051807;28;20049;-63
2022/10/10 09:01:37;;;;;;;8.93;6.03;;;13.30;99.90;;;;;;5052165;28;20037;-64
2022/10/10 09:04:05;;;;;;;9.93;6.78;;;13.30;99.90;;;;;;5051651;28;20052;-63
2022/10/10 09:06:33;;;;;;;9.95;8.05;;;13.40;99.90;;;;;;5051990;28;20036;-63
2022/10/10 09:09:18;;;;;;;9.43;6.90;;;13.50;99.90;;;;;;5051279;28;20044;-62
2022/10/10 09:11:58;;;;;;;;;;;13.70;99.90;;;;;;5052161;28;20140;-63
2022/10/10 09:14:54;;;;;;;9.68;6.38;;;13.90;99.90;;;;;;5051610;28;19925;-63
2022/10/10 09:17:44;;;;;;;10.40;6.25;;;14.10;99.90;;;;;;5051768;28;20358;-62
2022/10/10 09:20:22;;;;;;;10.07;6.45;;;14.10;99.90;;;;;;5051311;28;20033;-62
2022/10/10 09:22:51;;;;;;;8.45;5.78;;;14.30;99.90;;;;;;5038841;28;20048;-63
2022/10/10 09:25:22;;;;;;;9.48;6.40;;;14.30;99.90;;;;;;5051287;28;20052;-63
2022/10/10 09:28:01;;;;;;;9.07;6.45;;;14.40;99.90;;;;;;5037882;28;20477;-62
2022/10/10 09:30:31;;;;;;;11.32;6.00;;;14.50;99.90;;;;;;5051174;28;20052;-62
2022/10/10 09:33:03;;;;;;;8.70;6.22;;;14.60;99.90;;;;;;5051114;28;20040;-64
2022/10/10 09:35:33;;;;;;;10.27;6.60;;;14.70;99.90;;;;;;5051487;28;20238;-62
2022/10/10 09:38:08;;;;;;;10.40;6.18;;;14.70;99.90;;;;;;5047643;28;20049;-62
2022/10/10 09:40:38;;;;;;;7.80;5.97;;;14.50;99.90;;;;;;5050338;28;20075;-62
2022/10/10 09:43:17;;;;;;;8.05;6.30;;;14.50;99.90;;;;;;5050922;28;20431;-62
2022/10/10 09:45:55;;;;;;;10.90;6.60;;;14.50;99.90;;;;;;5050859;28;20049;-62
2022/10/10 09:48:41;;;;;;;8.93;6.25;;;14.60;99.90;;;;;;5048622;28;20041;-62
2022/10/10 09:51:15;;;;;;;9.02;6.40;;;14.80;99.90;;;;;;5050762;28;20068;-63
2022/10/10 09:53:42;;;;;;;10.73;6.40;;;14.70;99.90;;;;;;5050896;28;20040;-63
2022/10/10 09:56:16;;;;;;;9.18;6.65;;;14.70;99.90;;;;;;5049742;28;20077;-63
2022/10/10 09:58:45;;;;;;;10.55;6.30;;;14.90;99.90;;;;;;5050415;28;20389;-62
2022/10/10 10:01:22;;;;;;;9.98;6.38;;;14.90;99.90;;;;;;5051277;28;20041;-62
2022/10/10 10:04:10;;;;;;;10.38;6.40;;;15.00;99.90;;;;;;5050711;28;20430;-62
2022/10/10 10:06:36;;;;;;;12.00;6.28;;;15.00;99.90;;;;;;5045062;28;20037;-62
2022/10/10 10:09:05;;;;;;;12.77;6.53;;;15.00;99.90;;;;;;5050365;28;20362;-63
2022/10/10 10:11:34;;;;;;;11.48;6.82;;;15.00;99.90;;;;;;5050970;28;20145;-63
2022/10/10 10:14:01;;;;;;;10.05;6.40;;;15.00;99.90;;;;;;5050512;28;20131;-63
2022/10/10 10:16:38;;;;;;;11.55;6.47;;;15.00;99.90;;;;;;5050581;28;20433;-62
2022/10/10 10:19:06;;;;;;;10.35;6.50;;;15.20;99.90;;;;;;5050679;28;20041;-62
2022/10/10 10:21:50;;;;;;;11.40;6.90;;;15.30;99.90;;;;;;5050176;28;20108;-62
2022/10/10 10:24:23;;;;;;;9.65;6.40;;;15.40;99.90;;;;;;5048381;28;20362;-62
2022/10/10 10:26:49;;;;;;;11.73;6.95;;;15.50;99.90;;;;;;5050666;28;20124;-63
2022/10/10 10:29:27;;;;;;;12.88;7.10;;;15.50;99.90;;;;;;5050277;28;20121;-62
2022/10/10 10:32:16;;;;;;;10.95;6.70;;;15.50;99.90;;;;;;5050626;28;20037;-63
2022/10/10 10:34:59;;;;;;;12.70;6.72;;;15.50;99.90;;;;;;5049618;28;20048;-63
2022/10/10 10:37:28;;;;;;;11.57;6.90;;;15.50;99.90;;;;;;5050413;28;20048;-62
2022/10/10 10:40:29;;;;;;;11.18;6.95;;;15.40;99.90;;;;;;5032198;28;20056;-63
2022/10/10 10:43:07;;;;;;;14.98;7.50;;;15.30;99.90;;;;;;5050370;28;20044;-62
2022/10/10 10:45:52;;;;;;;16.05;7.22;;;15.30;99.90;;;;;;5050248;28;20162;-62
2022/10/10 10:48:42;;;;;;;18.10;14.00;;;15.30;99.90;;;;;;5047813;28;20056;-62
2022/10/10 10:51:56;;;;;;;12.43;7.47;;;15.30;99.90;;;;;;5051627;28;20116;-62
2022/10/10 10:54:58;;;;;;;11.98;6.60;;;15.30;99.90;;;;;;5053932;28;20041;-63
2022/10/10 10:57:50;;;;;;;9.40;6.13;;;15.30;99.90;;;;;;5042860;28;20052;-62
2022/10/10 11:00:18;;;;;;;9.60;6.35;;;15.30;99.90;;;;;;5053537;28;20353;-62
2022/10/10 11:03:19;;;;;;;10.50;6.45;;;15.40;99.90;;;;;;5054265;28;20052;-62
2022/10/10 11:06:10;;;;;;;11.65;6.70;;;15.50;99.90;;;;;;5053032;28;20071;-63
2022/10/10 11:08:47;;;;;;;13.75;6.22;;;15.50;99.90;;;;;;5052398;28;20033;-64
2022/10/10 11:11:22;;;;;;;12.00;6.38;;;15.50;99.90;;;;;;5053665;28;20036;-63
2022/10/10 11:13:59;;;;;;;10.85;6.78;;;15.50;99.90;;;;;;5051545;28;20537;-62
2022/10/10 11:16:37;;;;;;;8.65;6.15;;;15.50;99.90;;;;;;5052576;28;20041;-62
2022/10/10 11:19:40;;;;;;;10.38;6.07;;;15.50;99.90;;;;;;5053562;28;20044;-63
2022/10/10 11:22:10;;;;;;;15.43;6.53;;;15.40;99.90;;;;;;5049217;28;20075;-62
2022/10/10 11:24:51;;;;;;;10.35;6.70;;;15.30;99.90;;;;;;5053468;28;20041;-63
2022/10/10 11:27:39;;;;;;;12.05;6.60;;;15.20;99.90;;;;;;5053547;28;20050;-62
2022/10/10 11:30:25;;;;;;;10.05;6.40;;;15.20;99.90;;;;;;5053466;28;20123;-63
2022/10/10 11:33:14;;;;;;;9.40;6.35;;;15.20;99.90;;;;;;5047987;28;20036;-62
2022/10/10 11:35:54;;;;;;;11.85;6.32;;;15.20;99.90;;;;;;5052979;28;20493;-63
2022/10/10 11:38:43;;;;;;;9.90;6.20;;;15.20;99.90;;;;;;5053747;28;20069;-64
2022/10/10 11:41:21;;;;;;;10.52;6.38;;;15.20;99.90;;;;;;5053108;28;20072;-62
2022/10/10 11:43:59;;;;;;;11.55;6.50;;;15.10;99.90;;;;;;5053488;28;20041;-63
2022/10/10 11:46:54;;;;;;;12.32;6.38;;;15.20;99.90;;;;;;5049087;28;20048;-62
2022/10/10 11:49:32;;;;;;;14.32;7.03;;;15.20;99.90;;;;;;5052004;28;20040;-63
2022/10/10 11:52:12;;;;;;;12.57;6.63;;;15.20;99.90;;;;;;5053398;28;20128;-62
2022/10/10 11:54:47;;;;;;;13.07;6.85;;;15.20;99.90;;;;;;5053065;28;20029;-62
2022/10/10 11:57:26;;;;;;;12.85;6.75;;;15.20;99.90;;;;;;5052483;28;20044;-62
2022/10/10 11:59:58;;;;;;;10.95;6.63;;;15.10;99.90;;;;;;5053068;28;20045;-63
2022/10/10 12:02:32;;;;;;;11.38;6.57;;;15.10;99.90;;;;;;5051739;28;20052;-62
2022/10/10 12:04:58;;;;;;;11.95;7.10;;;15.10;99.90;;;;;;5052882;28;20037;-63
2022/10/10 12:07:58;;;;;;;11.82;6.82;;;15.10;99.90;;;;;;5050932;28;20048;-63
2022/10/10 12:10:41;;;;;;;11.60;6.97;;;15.10;99.90;;;;;;5050186;28;20053;-64
2022/10/10 12:13:28;;;;;;;10.23;6.53;;;15.10;99.90;;;;;;5052997;28;20107;-62
2022/10/10 12:15:57;;;;;;;13.32;7.88;;;15.10;99.90;;;;;;5049432;28;20132;-62
2022/10/10 12:18:30;;;;;;;12.32;8.20;;;15.10;99.90;;;;;;5053080;28;20072;-62
2022/10/10 12:21:05;;;;;;;14.70;8.45;;;15.00;99.90;;;;;;5052768;28;20045;-62
2022/10/10 12:23:32;;;;;;;16.02;11.10;;;14.90;99.90;;;;;;5052482;28;20397;-62
2022/10/10 12:25:57;;;;;;;12.65;7.90;;;14.80;99.90;;;;;;5052471;28;20032;-62
2022/10/10 12:28:28;;;;;;;13.38;8.27;;;14.80;99.90;;;;;;5052554;28;20094;-63
2022/10/10 12:30:53;;;;;;;14.15;8.05;;;14.70;99.90;;;;;;5052763;28;20120;-63
2022/10/10 12:33:42;;;;;;;14.02;9.05;;;14.60;99.90;;;;;;5052940;28;20136;-63
2022/10/10 12:36:20;;;;;;;14.18;9.35;;;14.60;99.90;;;;;;5051844;28;20118;-65
2022/10/10 12:39:01;;;;;;;12.20;8.70;;;14.60;99.90;;;;;;5052049;28;20140;-62
2022/10/10 12:41:41;;;;;;;13.90;8.23;;;14.60;99.90;;;;;;5052214;28;20092;-63
2022/10/10 12:44:34;;;;;;;13.40;8.27;;;14.50;99.90;;;;;;5052123;28;20060;-63
2022/10/10 12:47:15;;;;;;;17.55;10.02;;;14.50;99.90;;;;;;5041704;28;20057;-62
2022/10/10 12:49:53;;;;;;;14.50;9.23;;;14.40;99.90;;;;;;5051925;28;20040;-62
2022/10/10 12:52:23;;;;;;;14.82;8.70;;;14.40;99.90;;;;;;5052143;28;20040;-62
2022/10/10 12:54:50;;;;;;;15.85;9.15;;;14.40;99.90;;;;;;5052015;28;20245;-62
2022/10/10 12:57:30;;;;;;;15.98;9.10;;;14.40;99.90;;;;;;5052109;28;20045;-62
2022/10/10 12:59:57;;;;;;;15.95;9.13;;;14.40;99.90;;;;;;5051687;28;20036;-63
2022/10/10 13:02:27;;;;;;;15.60;9.55;;;14.40;99.90;;;;;;5052099;28;20048;-61
2022/10/10 13:04:57;;;;;;;15.68;9.27;;;14.30;99.90;;;;;;5051374;28;20481;-62
2022/10/10 13:07:24;;;;;;;16.25;10.10;;;14.30;99.90;;;;;;5037700;28;20381;-63